createdAt,value
2022-09-27T00:00:07.909Z,15.93
2022-09-27T00:02:34.481Z,15.27
2022-09-27T00:05:00.993Z,14.57
2022-09-27T00:07:27.444Z,13.33
2022-09-27T00:09:53.873Z,13.30
2022-09-27T00:12:20.333Z,12.93
2022-09-27T00:14:46.790Z,13.60
2022-09-27T00:17:13.250Z,13.10
2022-09-27T00:19:39.702Z,12.63
2022-09-27T00:22:06.302Z,13.23
2022-09-27T00:24:32.876Z,14.23
2022-09-27T00:26:59.483Z,13.10
2022-09-27T00:29:26.099Z,12.10
2022-09-27T00:31:52.559Z,13.40
2022-09-27T00:34:24.129Z,13.00
2022-09-27T00:36:51.594Z,13.37
2022-09-27T00:39:18.360Z,14.60
2022-09-27T00:41:45.199Z,13.73
2022-09-27T00:44:27.040Z,13.67
2022-09-27T00:47:04.522Z,13.00
2022-09-27T00:49:54.450Z,12.53
2022-09-27T00:52:42.141Z,13.17
2022-09-27T00:55:15.777Z,13.10
2022-09-27T00:57:43.467Z,12.63
2022-09-27T01:00:12.023Z,12.23
2022-09-27T01:02:41.110Z,11.97
2022-09-27T01:05:08.389Z,12.10
2022-09-27T01:07:35.057Z,12.47
2022-09-27T01:10:01.897Z,12.13
2022-09-27T01:12:42.807Z,12.93
2022-09-27T01:15:16.109Z,12.83
2022-09-27T01:17:57.871Z,13.10
2022-09-27T01:20:52.308Z,11.57
2022-09-27T01:23:40.205Z,13.60
2022-09-27T01:26:09.614Z,11.93
2022-09-27T01:28:58.119Z,12.60
2022-09-27T01:31:39.728Z,12.47
2022-09-27T01:34:30.796Z,12.20
2022-09-27T01:37:09.427Z,12.67
2022-09-27T01:39:59.625Z,12.63
2022-09-27T01:42:31.496Z,11.90
2022-09-27T01:45:07.489Z,11.53
2022-09-27T01:47:44.870Z,11.23
2022-09-27T01:50:14.488Z,12.37
2022-09-27T01:52:51.304Z,11.10
2022-09-27T01:55:19.733Z,11.97
2022-09-27T01:57:58.138Z,11.33
2022-09-27T02:00:25.117Z,10.87
2022-09-27T02:03:22.086Z,12.60
2022-09-27T02:05:53.792Z,10.90
2022-09-27T02:08:32.059Z,9.93
2022-09-27T02:11:00.775Z,10.40
2022-09-27T02:13:43.021Z,9.13
2022-09-27T02:16:31.158Z,11.97
2022-09-27T02:19:17.656Z,10.47
2022-09-27T02:21:58.371Z,10.17
2022-09-27T02:24:32.411Z,9.37
2022-09-27T02:27:10.299Z,9.53
2022-09-27T02:29:50.973Z,9.90
2022-09-27T02:32:17.516Z,9.10
2022-09-27T02:34:45.056Z,8.77
2022-09-27T02:37:11.835Z,9.60
2022-09-27T02:39:38.564Z,10.20
2022-09-27T02:42:05.633Z,9.73
2022-09-27T02:44:32.322Z,9.67
2022-09-27T02:47:07.737Z,9.97
2022-09-27T02:50:02.218Z,9.00
2022-09-27T02:52:37.939Z,10.37
2022-09-27T02:55:20.715Z,10.87
2022-09-27T02:57:56.484Z,9.50
2022-09-27T03:00:30.399Z,9.40
2022-09-27T03:03:04.060Z,9.00
2022-09-27T03:05:35.013Z,9.70
2022-09-27T03:08:01.674Z,9.10
2022-09-27T03:10:29.044Z,7.43
2022-09-27T03:12:57.397Z,7.43
2022-09-27T03:15:24.239Z,8.53
2022-09-27T03:17:50.701Z,7.30
2022-09-27T03:20:18.003Z,7.73
2022-09-27T03:22:44.512Z,7.97
2022-09-27T03:25:11.517Z,7.60
2022-09-27T03:27:38.055Z,8.50
2022-09-27T03:30:06.335Z,7.77
2022-09-27T03:32:32.781Z,8.50
2022-09-27T03:34:59.266Z,8.40
2022-09-27T03:37:27.076Z,7.50
2022-09-27T03:39:53.580Z,8.17
2022-09-27T03:42:20.003Z,8.73
2022-09-27T03:44:46.445Z,7.90
2022-09-27T03:47:12.882Z,7.70
2022-09-27T03:49:39.336Z,7.53
2022-09-27T03:52:05.790Z,8.27
2022-09-27T03:54:32.742Z,9.03
2022-09-27T03:56:59.216Z,9.47
2022-09-27T03:59:25.668Z,8.10
2022-09-27T04:01:52.189Z,8.03
2022-09-27T04:04:18.807Z,8.97
2022-09-27T04:06:45.241Z,9.20
2022-09-27T04:09:11.755Z,10.83
2022-09-27T04:11:38.228Z,8.60
2022-09-27T04:14:05.731Z,11.30
2022-09-27T04:16:32.794Z,8.13
2022-09-27T04:18:59.421Z,9.07
2022-09-27T04:21:25.848Z,9.90
2022-09-27T04:23:52.285Z,9.77
2022-09-27T04:26:18.840Z,10.20
2022-09-27T04:28:48.836Z,9.37
2022-09-27T04:31:17.450Z,10.30
2022-09-27T04:33:44.010Z,10.17
2022-09-27T04:36:28.192Z,11.00
2022-09-27T04:39:02.771Z,14.67
2022-09-27T04:41:29.573Z,11.20
2022-09-27T04:43:59.223Z,10.77
2022-09-27T04:46:27.212Z,10.70
2022-09-27T04:48:53.732Z,13.87
2022-09-27T04:51:20.304Z,11.27
2022-09-27T04:53:47.648Z,10.60
2022-09-27T04:56:15.655Z,10.73
2022-09-27T04:58:42.130Z,12.60
2022-09-27T05:01:09.514Z,11.70
2022-09-27T05:03:36.380Z,16.83
2022-09-27T05:06:02.960Z,11.50
2022-09-27T05:08:29.517Z,13.00
2022-09-27T05:10:56.073Z,11.37
2022-09-27T05:13:23.240Z,12.37
2022-09-27T05:15:49.801Z,12.13
2022-09-27T05:18:17.417Z,13.13
2022-09-27T05:20:44.677Z,11.80
2022-09-27T05:23:11.301Z,14.20
2022-09-27T05:25:37.780Z,11.40
2022-09-27T05:28:05.242Z,14.83
2022-09-27T05:30:31.820Z,12.17
2022-09-27T05:32:58.403Z,11.77
2022-09-27T05:35:24.856Z,11.47
2022-09-27T05:37:56.814Z,16.97
2022-09-27T05:40:40.443Z,14.37
2022-09-27T05:43:07.572Z,22.87
2022-09-27T05:45:34.116Z,13.47
2022-09-27T05:48:00.649Z,15.07
2022-09-27T05:50:27.461Z,12.80
2022-09-27T05:52:54.178Z,15.33
2022-09-27T05:55:21.321Z,18.47
2022-09-27T05:58:01.900Z,14.60
2022-09-27T06:00:29.282Z,15.20
2022-09-27T06:02:57.287Z,14.63
2022-09-27T06:05:24.907Z,14.27
2022-09-27T06:07:51.793Z,13.77
2022-09-27T06:10:19.419Z,12.77
2022-09-27T06:12:46.636Z,15.97
2022-09-27T06:15:13.163Z,15.27
2022-09-27T06:17:39.665Z,17.50
2022-09-27T06:20:07.686Z,16.33
2022-09-27T06:22:34.177Z,15.93
2022-09-27T06:25:00.632Z,18.10
2022-09-27T06:27:27.138Z,17.57
2022-09-27T06:29:53.565Z,17.63
2022-09-27T06:32:20.102Z,18.13
2022-09-27T06:34:46.534Z,19.20
2022-09-27T06:37:13.133Z,20.50
2022-09-27T06:39:39.563Z,19.43
2022-09-27T06:42:06.789Z,17.20
2022-09-27T06:44:33.262Z,15.63
2022-09-27T06:46:59.698Z,34.50
2022-09-27T06:49:26.161Z,22.97
2022-09-27T06:51:53.765Z,15.57
2022-09-27T06:54:20.209Z,17.27
2022-09-27T06:56:49.779Z,12.80
2022-09-27T06:59:34.873Z,15.40
2022-09-27T07:02:01.917Z,31.80
2022-09-27T07:04:28.456Z,22.37
2022-09-27T07:06:55.212Z,18.30
2022-09-27T07:09:21.819Z,15.50
2022-09-27T07:11:48.486Z,13.13
2022-09-27T07:14:16.372Z,19.43
2022-09-27T07:16:43.632Z,13.77
2022-09-27T07:19:11.736Z,15.13
2022-09-27T07:21:38.159Z,11.83
2022-09-27T07:24:04.701Z,13.57
2022-09-27T07:26:31.237Z,10.97
2022-09-27T07:28:57.826Z,10.83
2022-09-27T07:31:24.328Z,7.33
2022-09-27T07:33:52.724Z,8.37
2022-09-27T07:36:19.227Z,7.97
2022-09-27T07:38:45.682Z,7.10
2022-09-27T07:41:14.217Z,7.60
2022-09-27T07:43:41.936Z,7.50
2022-09-27T07:46:08.457Z,4.37
2022-09-27T07:48:34.949Z,5.50
2022-09-27T07:51:01.446Z,8.23
2022-09-27T07:53:28.270Z,7.53
2022-09-27T07:55:54.916Z,5.40
2022-09-27T07:58:22.259Z,4.67
2022-09-27T08:00:48.827Z,3.83
2022-09-27T08:03:16.658Z,5.40
2022-09-27T08:05:44.514Z,4.10
2022-09-27T08:08:11.361Z,8.77
2022-09-27T08:10:39.871Z,6.70
2022-09-27T08:13:06.381Z,4.10
2022-09-27T08:15:33.853Z,5.87
2022-09-27T08:18:00.706Z,6.43
2022-09-27T08:20:27.195Z,6.97
2022-09-27T08:22:53.756Z,6.80
2022-09-27T08:25:22.544Z,7.80
2022-09-27T08:27:57.041Z,6.10
2022-09-27T08:30:24.216Z,6.97
2022-09-27T08:32:55.554Z,4.23
2022-09-27T08:35:22.355Z,9.00
2022-09-27T08:38:02.427Z,6.20
2022-09-27T08:40:44.929Z,8.87
2022-09-27T08:43:36.671Z,8.00
2022-09-27T08:46:21.308Z,5.10
2022-09-27T08:48:51.638Z,7.93
2022-09-27T08:51:21.670Z,7.87
2022-09-27T08:53:54.477Z,10.60
2022-09-27T08:56:21.567Z,6.93
2022-09-27T08:59:14.605Z,8.47
2022-09-27T09:01:41.431Z,8.80
2022-09-27T09:04:09.294Z,7.27
2022-09-27T09:06:58.725Z,8.13
2022-09-27T09:09:31.261Z,7.83
2022-09-27T09:12:41.477Z,9.80
2022-09-27T09:15:22.110Z,8.13
2022-09-27T09:17:54.653Z,6.23
2022-09-27T09:20:42.975Z,9.80
2022-09-27T09:23:28.099Z,10.47
2022-09-27T09:26:09.860Z,8.30
2022-09-27T09:28:51.654Z,11.27
2022-09-27T09:31:43.207Z,10.57
2022-09-27T09:34:36.088Z,9.53
2022-09-27T09:37:05.972Z,11.57
2022-09-27T09:39:50.634Z,8.83
2022-09-27T09:42:26.790Z,7.13
2022-09-27T09:45:02.736Z,7.93
2022-09-27T09:47:32.124Z,10.00
2022-09-27T09:50:01.566Z,10.87
2022-09-27T09:52:44.113Z,9.83
2022-09-27T09:55:23.198Z,6.73
2022-09-27T09:58:08.744Z,6.30
2022-09-27T10:00:35.197Z,6.50
2022-09-27T10:03:03.358Z,6.70
2022-09-27T10:05:29.921Z,4.93
2022-09-27T10:07:59.206Z,5.83
2022-09-27T10:10:25.879Z,6.83
2022-09-27T10:12:52.668Z,5.57
2022-09-27T10:15:21.856Z,8.30
2022-09-27T10:17:51.084Z,5.10
2022-09-27T10:20:34.316Z,5.53
2022-09-27T10:23:13.985Z,3.53
2022-09-27T10:25:49.901Z,3.53
2022-09-27T10:28:37.330Z,3.57
2022-09-27T10:31:06.427Z,3.47
2022-09-27T10:33:33.702Z,3.63
2022-09-27T10:36:01.270Z,4.00
2022-09-27T10:38:35.502Z,4.73
2022-09-27T10:41:51.424Z,6.93
2022-09-27T10:44:18.126Z,4.23
2022-09-27T10:46:46.618Z,3.50
2022-09-27T10:49:22.884Z,3.23
2022-09-27T10:51:55.276Z,3.77
2022-09-27T10:54:29.825Z,4.80
2022-09-27T10:57:16.315Z,3.13
2022-09-27T10:59:45.778Z,3.33
2022-09-27T11:02:24.683Z,6.13
2022-09-27T11:05:13.851Z,3.33
2022-09-27T11:07:53.457Z,4.20
2022-09-27T11:10:48.612Z,5.03
2022-09-27T11:13:17.587Z,3.10
2022-09-27T11:15:53.263Z,3.40
2022-09-27T11:18:38.417Z,3.93
2022-09-27T11:21:33.789Z,5.87
2022-09-27T11:24:12.448Z,3.63
2022-09-27T11:26:49.938Z,4.73
2022-09-27T11:29:45.314Z,3.30
2022-09-27T11:32:36.205Z,2.97
2022-09-27T11:35:10.744Z,2.67
2022-09-27T11:38:12.125Z,5.53
2022-09-27T11:41:00.461Z,3.27
2022-09-27T11:43:39.967Z,4.80
2022-09-27T11:46:41.735Z,6.73
2022-09-27T11:49:30.358Z,4.37
2022-09-27T11:52:18.576Z,4.57
2022-09-27T11:55:06.337Z,4.53
2022-09-27T11:57:36.014Z,4.33
2022-09-27T12:00:10.881Z,3.40
2022-09-27T12:03:15.106Z,2.67
2022-09-27T12:05:58.376Z,3.20
2022-09-27T12:08:38.893Z,2.63
2022-09-27T12:11:14.709Z,4.13
2022-09-27T12:13:44.679Z,3.83
2022-09-27T12:16:11.874Z,4.13
2022-09-27T12:18:39.460Z,3.10
2022-09-27T12:21:09.659Z,3.23
2022-09-27T12:23:45.898Z,3.77
2022-09-27T12:26:44.965Z,3.93
2022-09-27T12:29:20.864Z,3.17
2022-09-27T12:31:52.895Z,3.50
2022-09-27T12:34:57.183Z,2.87
2022-09-27T12:37:45.799Z,3.23
2022-09-27T12:40:20.525Z,3.30
2022-09-27T12:43:02.217Z,3.03
2022-09-27T12:45:37.651Z,3.10
2022-09-27T12:48:23.406Z,4.40
2022-09-27T12:50:53.854Z,3.47
2022-09-27T12:53:30.589Z,3.53
2022-09-27T12:55:59.634Z,4.73
2022-09-27T12:58:44.244Z,3.33
2022-09-27T13:01:26.210Z,3.57
2022-09-27T13:03:52.720Z,4.20
2022-09-27T13:06:22.101Z,3.37
2022-09-27T13:08:54.675Z,5.80
2022-09-27T13:11:39.438Z,3.77
2022-09-27T13:14:06.503Z,2.57
2022-09-27T13:16:44.817Z,2.23
2022-09-27T13:19:36.194Z,1.50
2022-09-27T13:22:04.916Z,2.30
2022-09-27T13:24:39.485Z,2.87
2022-09-27T13:27:27.780Z,1.67
2022-09-27T13:30:09.505Z,2.17
2022-09-27T13:32:36.572Z,1.70
2022-09-27T13:35:21.475Z,2.03
2022-09-27T13:37:52.966Z,2.50
2022-09-27T13:40:33.284Z,2.93
2022-09-27T13:43:13.186Z,1.37
2022-09-27T13:46:01.359Z,1.90
2022-09-27T13:48:47.830Z,1.77
2022-09-27T13:51:28.680Z,3.10
2022-09-27T13:54:10.588Z,2.13
2022-09-27T13:56:38.078Z,2.53
2022-09-27T13:59:10.882Z,2.73
2022-09-27T14:01:43.075Z,3.07
2022-09-27T14:04:29.764Z,6.00
2022-09-27T14:07:00.112Z,2.63
2022-09-27T14:09:30.419Z,2.80
2022-09-27T14:11:59.754Z,2.50
2022-09-27T14:14:29.235Z,3.00
2022-09-27T14:16:59.105Z,4.33
2022-09-27T14:19:26.130Z,4.30
2022-09-27T14:21:53.368Z,4.30
2022-09-27T14:24:30.253Z,4.93
2022-09-27T14:27:06.400Z,3.73
2022-09-27T14:29:40.888Z,3.93
2022-09-27T14:32:11.973Z,3.57
2022-09-27T14:34:39.700Z,2.03
2022-09-27T14:37:26.406Z,2.63
2022-09-27T14:39:54.493Z,3.13
2022-09-27T14:42:23.020Z,2.63
2022-09-27T14:44:50.129Z,3.70
2022-09-27T14:47:23.134Z,3.23
2022-09-27T14:49:54.741Z,4.53
2022-09-27T14:52:27.857Z,3.93
2022-09-27T14:55:05.897Z,6.57
2022-09-27T14:57:34.321Z,5.13
2022-09-27T15:00:05.138Z,3.90
2022-09-27T15:02:33.401Z,4.23
2022-09-27T15:04:59.950Z,2.80
2022-09-27T15:07:27.813Z,3.33
2022-09-27T15:09:54.364Z,3.33
2022-09-27T15:12:25.635Z,2.30
2022-09-27T15:14:54.325Z,2.97
2022-09-27T15:17:21.968Z,2.83
2022-09-27T15:20:20.070Z,3.47
2022-09-27T15:22:47.449Z,3.13
2022-09-27T15:25:34.762Z,4.57
2022-09-27T15:28:07.293Z,4.97
2022-09-27T15:30:42.243Z,3.90
2022-09-27T15:33:20.601Z,3.73
2022-09-27T15:35:50.904Z,3.70
2022-09-27T15:38:29.630Z,2.83
2022-09-27T15:41:04.111Z,3.53
2022-09-27T15:43:52.632Z,4.80
2022-09-27T15:46:22.455Z,3.23
2022-09-27T15:49:17.733Z,7.47
2022-09-27T15:51:49.119Z,5.60
2022-09-27T15:54:20.318Z,5.30
2022-09-27T15:56:51.208Z,6.70
2022-09-27T15:59:26.644Z,6.53
2022-09-27T16:01:58.790Z,5.97
2022-09-27T16:04:26.354Z,8.03
2022-09-27T16:06:56.081Z,5.93
2022-09-27T16:09:22.584Z,9.67
2022-09-27T16:11:50.171Z,4.43
2022-09-27T16:14:19.154Z,4.40
2022-09-27T16:16:47.034Z,6.57
2022-09-27T16:19:13.650Z,4.63
2022-09-27T16:21:42.789Z,4.67
2022-09-27T16:24:10.617Z,4.30
2022-09-27T16:26:37.761Z,6.67
2022-09-27T16:29:05.254Z,4.07
2022-09-27T16:31:31.776Z,5.03
2022-09-27T16:33:58.424Z,4.07
2022-09-27T16:36:24.916Z,5.03
2022-09-27T16:38:51.472Z,5.73
2022-09-27T16:41:20.010Z,5.53
2022-09-27T16:43:47.127Z,6.97
2022-09-27T16:46:16.011Z,5.57
2022-09-27T16:48:42.777Z,4.63
2022-09-27T16:51:37.136Z,4.87
2022-09-27T16:54:07.937Z,6.80
2022-09-27T16:56:35.337Z,6.70
2022-09-27T16:59:04.295Z,7.07
2022-09-27T17:01:31.533Z,6.27
2022-09-27T17:03:59.794Z,5.27
2022-09-27T17:06:28.831Z,7.63
2022-09-27T17:08:56.118Z,6.13
2022-09-27T17:11:23.471Z,8.33
2022-09-27T17:13:55.333Z,7.23
2022-09-27T17:16:25.458Z,8.87
2022-09-27T17:18:54.150Z,4.80
2022-09-27T17:21:28.115Z,3.77
2022-09-27T17:23:56.941Z,5.47
2022-09-27T17:26:24.621Z,7.37
2022-09-27T17:28:55.462Z,5.70
2022-09-27T17:31:22.392Z,5.30
2022-09-27T17:33:56.808Z,8.83
2022-09-27T17:36:27.426Z,6.47
2022-09-27T17:38:54.235Z,5.90
2022-09-27T17:41:24.192Z,11.57
2022-09-27T17:43:55.636Z,5.90
2022-09-27T17:46:24.426Z,7.03
2022-09-27T17:49:09.533Z,5.57
2022-09-27T17:51:38.376Z,6.33
2022-09-27T17:54:07.320Z,5.27
2022-09-27T17:56:38.239Z,6.30
2022-09-27T17:59:05.020Z,6.60
2022-09-27T18:01:32.238Z,5.93
2022-09-27T18:04:00.621Z,5.00
2022-09-27T18:06:28.116Z,6.50
2022-09-27T18:08:55.650Z,4.93
2022-09-27T18:11:28.523Z,6.67
2022-09-27T18:13:56.625Z,3.60
2022-09-27T18:16:29.545Z,6.00
2022-09-27T18:18:56.568Z,5.93
2022-09-27T18:21:23.724Z,5.27
2022-09-27T18:23:54.174Z,5.57
2022-09-27T18:26:24.024Z,4.90
2022-09-27T18:28:55.545Z,6.97
2022-09-27T18:31:23.039Z,7.67
2022-09-27T18:33:50.152Z,8.17
2022-09-27T18:36:25.023Z,7.90
2022-09-27T18:38:54.533Z,8.50
2022-09-27T18:41:22.459Z,4.03
2022-09-27T18:43:49.654Z,4.70
2022-09-27T18:46:35.107Z,9.40
2022-09-27T18:49:03.887Z,5.97
2022-09-27T18:51:30.938Z,5.10
2022-09-27T18:54:09.524Z,4.30
2022-09-27T18:56:39.192Z,5.37
2022-09-27T18:59:08.668Z,7.57
2022-09-27T19:01:39.492Z,5.63
2022-09-27T19:04:07.662Z,5.43
2022-09-27T19:06:34.246Z,4.57
2022-09-27T19:09:00.851Z,3.27
2022-09-27T19:11:27.652Z,5.03
2022-09-27T19:13:56.246Z,6.33
2022-09-27T19:16:23.873Z,3.67
2022-09-27T19:18:50.726Z,5.70
2022-09-27T19:21:22.316Z,4.17
2022-09-27T19:23:51.268Z,4.70
2022-09-27T19:26:21.298Z,5.90
2022-09-27T19:28:48.261Z,6.07
2022-09-27T19:31:20.302Z,4.13
2022-09-27T19:33:47.194Z,3.53
2022-09-27T19:36:16.049Z,2.77
2022-09-27T19:38:45.878Z,4.00
2022-09-27T19:41:16.101Z,3.40
2022-09-27T19:43:47.401Z,4.10
2022-09-27T19:46:15.920Z,3.13
2022-09-27T19:48:43.575Z,3.77
2022-09-27T19:51:23.833Z,2.97
2022-09-27T19:53:50.834Z,2.87
2022-09-27T19:56:17.634Z,2.67
2022-09-27T19:58:44.727Z,2.57
2022-09-27T20:01:16.162Z,2.33
2022-09-27T20:03:43.873Z,3.47
2022-09-27T20:06:12.640Z,3.10
2022-09-27T20:08:39.300Z,2.90
2022-09-27T20:11:07.008Z,3.00
2022-09-27T20:13:34.595Z,2.37
2022-09-27T20:16:06.950Z,2.63
2022-09-27T20:18:33.579Z,3.93
2022-09-27T20:21:04.209Z,4.37
2022-09-27T20:23:33.040Z,3.70
2022-09-27T20:26:09.918Z,3.77
2022-09-27T20:28:42.133Z,4.00
2022-09-27T20:31:10.706Z,3.30
2022-09-27T20:34:06.851Z,5.73
2022-09-27T20:36:36.854Z,3.53
2022-09-27T20:39:11.437Z,3.10
2022-09-27T20:41:42.816Z,5.43
2022-09-27T20:44:11.216Z,5.20
2022-09-27T20:46:39.069Z,4.23
2022-09-27T20:49:08.086Z,3.83
2022-09-27T20:51:36.172Z,3.57
2022-09-27T20:54:04.321Z,4.57
2022-09-27T20:56:35.340Z,4.47
2022-09-27T20:59:04.413Z,5.83
2022-09-27T21:01:31.413Z,3.43
2022-09-27T21:04:04.175Z,5.03
2022-09-27T21:06:32.514Z,5.97
2022-09-27T21:08:59.987Z,5.20
2022-09-27T21:11:27.218Z,3.70
2022-09-27T21:13:54.495Z,3.43
2022-09-27T21:16:23.737Z,3.87
2022-09-27T21:18:52.186Z,3.70
2022-09-27T21:21:21.840Z,4.20
2022-09-27T21:23:53.898Z,5.80
2022-09-27T21:26:21.816Z,4.50
2022-09-27T21:28:53.423Z,3.97
2022-09-27T21:31:23.359Z,3.90
2022-09-27T21:33:55.534Z,4.93
2022-09-27T21:36:32.872Z,5.87
2022-09-27T21:39:01.348Z,4.10
2022-09-27T21:41:28.564Z,5.43
2022-09-27T21:43:56.085Z,4.37
2022-09-27T21:46:24.969Z,4.40
2022-09-27T21:48:56.974Z,5.33
2022-09-27T21:51:28.976Z,4.27
2022-09-27T21:53:58.710Z,5.63
2022-09-27T21:56:26.672Z,7.13
2022-09-27T21:58:53.780Z,5.23
2022-09-27T22:01:22.728Z,6.13
2022-09-27T22:03:51.484Z,4.20
2022-09-27T22:06:25.065Z,4.43
2022-09-27T22:08:51.918Z,7.47
2022-09-27T22:11:22.693Z,4.63
2022-09-27T22:13:50.102Z,3.60
2022-09-27T22:16:18.105Z,4.40
2022-09-27T22:18:46.609Z,3.87
2022-09-27T22:21:22.551Z,5.03
2022-09-27T22:23:56.519Z,4.97
2022-09-27T22:26:25.081Z,5.00
2022-09-27T22:28:52.302Z,6.27
2022-09-27T22:31:20.650Z,5.60
2022-09-27T22:33:58.531Z,6.30
2022-09-27T22:36:25.602Z,7.50
2022-09-27T22:38:52.828Z,6.63
2022-09-27T22:41:20.267Z,6.67
2022-09-27T22:43:47.132Z,6.63
2022-09-27T22:46:13.677Z,6.67
2022-09-27T22:48:40.773Z,8.47
2022-09-27T22:51:08.001Z,7.97
2022-09-27T22:53:35.042Z,8.33
2022-09-27T22:56:04.791Z,9.60
2022-09-27T22:58:31.794Z,10.47
2022-09-27T23:00:58.441Z,10.77
2022-09-27T23:03:24.965Z,9.03
2022-09-27T23:05:51.474Z,10.00
2022-09-27T23:08:17.936Z,10.30
2022-09-27T23:10:44.432Z,10.00
2022-09-27T23:13:10.885Z,10.13
2022-09-27T23:15:37.361Z,11.83
2022-09-27T23:18:03.914Z,11.60
2022-09-27T23:20:30.377Z,12.50
2022-09-27T23:22:56.796Z,12.40
2022-09-27T23:25:23.331Z,13.70
2022-09-27T23:27:50.991Z,13.07
2022-09-27T23:30:19.640Z,13.67
2022-09-27T23:32:52.197Z,15.97
2022-09-27T23:35:18.806Z,16.70
2022-09-27T23:37:45.242Z,14.80
2022-09-27T23:40:12.298Z,14.13
2022-09-27T23:42:38.776Z,14.43
2022-09-27T23:45:05.704Z,14.00
2022-09-27T23:47:33.104Z,15.63
2022-09-27T23:49:59.548Z,14.30
2022-09-27T23:52:26.417Z,14.60
2022-09-27T23:54:53.173Z,14.20
2022-09-27T23:57:19.665Z,14.53
2022-09-27T23:59:46.103Z,18.27
